Aviation Digital Data Service (ADDS)

Output produced by METARs form (2037 UTC 21 July 2017)
found at http://www.aviationweather.gov/adds/metars/
 
TAF TBPB 211700Z 2118/2218 10014KT 9999 SCT022